Flight Track Log - Related Links

Times and Time Zones

All times are in EDT time to prevent confusion due to time zone crossing. See the FDX1570 flight status page for this flight to view local times or setup timezone preferences in your user account.

Time Position Orientation Groundspeed Altitude Reporting Facility
EDT Latitude Longitude Course Direction KTS MPH feet Rate Location/Type
Sat 04:21:44 AM 35.0333 -89.9667 180° South 169 194 900  Level KMEM
Sat 04:22:44 AM 34.9667 -89.9667 180° South 203 234 3,200 2,500 Climbing KMEM
Sat 04:23:44 AM 34.9167 -89.9167 141° Southeast 284 327 5,900 2,850 Climbing KMEM
Sat 04:24:44 AM 34.9500 -89.8167 68° East 296 341 8,900 2,070 Climbing KMEM
Sat 04:26:06 AM 35.0036 -89.6931 62° Northeast 341 392 10,800 1,732 Climbing Memphis Center
Sat 04:27:06 AM 35.0550 -89.5722 63° Northeast 384 442 13,000 2,100 Climbing Memphis Center
Sat 04:28:06 AM 35.1083 -89.4469 62° Northeast 407 468 15,000 2,000 Climbing Memphis Center
Sat 04:29:06 AM 35.1628 -89.3172 63° Northeast 422 486 17,000 1,835 Climbing Memphis Center
Sat 04:30:07 AM 35.2192 -89.1856 62° Northeast 430 495 18,700 1,686 Climbing Memphis Center
Sat 04:31:07 AM 35.2717 -89.0481 65° Northeast 441 507 20,400 1,600 Climbing Memphis Center
Sat 04:32:07 AM 35.3383 -88.9169 58° Northeast 448 516 21,900 1,388 Climbing Memphis Center
Sat 04:33:08 AM 35.4011 -88.7800 61° Northeast 457 526 23,200 1,289 Climbing Memphis Center
Sat 04:34:08 AM 35.4692 -88.6367 60° Northeast 466 536 24,500 1,550 Climbing Memphis Center
Sat 04:35:08 AM 35.5361 -88.4933 60° Northeast 478 550 26,300 1,686 Climbing Memphis Center
Sat 04:36:09 AM 35.6050 -88.3494 59° Northeast 485 558 27,900 1,736 Climbing Memphis Center
Sat 04:37:09 AM 35.6878 -88.2106 54° Northeast 495 570 29,800 1,800 Climbing Memphis Center
Sat 04:38:09 AM 35.7667 -88.0825 53° Northeast 498 573 31,500 1,736 Climbing Memphis Center
Sat 04:39:10 AM 35.8508 -87.9444 53° Northeast 499 574 33,300 1,736 Climbing Memphis Center
Sat 04:40:10 AM 35.9344 -87.8067 53° Northeast 499 574 35,000 529 Climbing Memphis Center
Sat 04:46:10 AM 36.4345 -86.9641 54° Northeast 505 581 37,000 292 Climbing FlightAware ADS-B
Sat 04:47:01 AM 36.5018 -86.8490 54° Northeast 506 582 37,000  Level FlightAware ADS-B
Sat 04:48:09 AM 36.5989 -86.6811 54° Northeast 508 585 37,000  Level FlightAware ADS-B
Sat 04:49:42 AM 36.7274 -86.4605 54° Northeast 510 587 37,000  Level FlightAware ADS-B (KMDQ)
Sat 04:53:26 AM 37.0340 -85.9238 55° Northeast 512 589 37,000  Level FlightAware ADS-B
Sat 04:53:58 AM 37.0779 -85.8487 55° Northeast 511 588 37,000  Level FlightAware ADS-B
Sat 04:55:25 AM 37.1936 -85.6419 55° Northeast 516 594 37,000  Level FlightAware ADS-B
Sat 04:56:09 AM 37.2582 -85.5270 55° Northeast 516 594 37,000  Level FlightAware ADS-B
Sat 04:56:39 AM 37.2978 -85.4585 55° Northeast 516 594 37,000  Level FlightAware ADS-B
Sat 04:57:09 AM 37.3406 -85.3800 55° Northeast 516 594 37,000  Level FlightAware ADS-B
Sat 04:57:39 AM 37.3821 -85.3064 55° Northeast 516 594 37,000  Level FlightAware ADS-B
Sat 04:58:17 AM 37.4329 -85.2155 55° Northeast 518 596 37,000  Level FlightAware ADS-B
Sat 04:59:25 AM 37.5261 -85.0477 55° Northeast 516 594 37,000  Level FlightAware ADS-B
Sat 04:59:55 AM 37.5639 -84.9787 55° Northeast 516 594 37,000  Level FlightAware ADS-B
Sat 05:01:27 AM 37.6926 -84.7443 55° Northeast 515 593 37,000 480 Level FlightAware ADS-B
Sat 05:02:25 AM 37.7361 -84.6651 56° Northeast 510 587 38,200 340 Climbing FlightAware ADS-B
Sat 05:07:20 AM 38.1647 -83.8723 56° Northeast 513 590 39,000 148 Climbing FlightAware ADS-B
Sat 05:07:50 AM 38.2050 -83.7975 56° Northeast 513 590 39,000  Level FlightAware ADS-B
Sat 05:08:36 AM 38.2656 -83.6851 56° Northeast 514 592 39,000  Level FlightAware ADS-B
Sat 05:09:06 AM 38.3034 -83.6123 56° Northeast 516 594 39,000  Level FlightAware ADS-B
Sat 05:09:49 AM 38.3637 -83.4988 56° Northeast 518 596 39,000  Level FlightAware ADS-B
Sat 05:10:20 AM 38.4048 -83.4202 56° Northeast 518 596 39,000  Level FlightAware ADS-B
Sat 05:10:50 AM 38.4451 -83.3442 56° Northeast 519 597 39,000  Level FlightAware ADS-B
Sat 05:11:22 AM 38.4883 -83.2629 56° Northeast 520 598 39,000  Level FlightAware ADS-B
Sat 05:11:53 AM 38.5288 -83.1837 56° Northeast 520 598 39,000  Level FlightAware ADS-B
Sat 05:12:34 AM 38.5814 -83.0842 57° Northeast 520 598 39,000  Level FlightAware ADS-B
Sat 05:13:06 AM 38.6257 -82.9999 57° Northeast 518 596 39,000  Level FlightAware ADS-B
Sat 05:13:46 AM 38.6780 -82.8976 57° Northeast 519 597 39,000  Level FlightAware ADS-B
Sat 05:14:21 AM 38.7228 -82.8108 57° Northeast 519 597 39,000  Level FlightAware ADS-B
Sat 05:15:00 AM 38.7771 -82.7057 57° Northeast 519 597 39,000  Level FlightAware ADS-B
Sat 05:15:30 AM 38.8173 -82.6288 57° Northeast 518 596 39,000  Level FlightAware ADS-B
Sat 05:16:04 AM 38.8588 -82.5469 57° Northeast 516 594 39,000  Level FlightAware ADS-B
Sat 05:16:35 AM 38.9022 -82.4623 57° Northeast 516 594 39,000  Level FlightAware ADS-B
Sat 05:17:25 AM 38.9645 -82.3400 57° Northeast 514 592 39,000  Level FlightAware ADS-B
Sat 05:17:55 AM 39.0059 -82.2582 57° Northeast 512 589 39,000  Level FlightAware ADS-B
Sat 05:18:28 AM 39.0436 -82.1843 57° Northeast 513 590 39,000  Level FlightAware ADS-B
Sat 05:19:01 AM 39.0920 -82.0899 57° Northeast 513 590 39,000  Level FlightAware ADS-B
Sat 05:19:32 AM 39.1290 -82.0157 57° Northeast 513 590 39,000  Level FlightAware ADS-B
Sat 05:20:26 AM 39.2015 -81.8723 57° Northeast 514 592 39,000  Level FlightAware ADS-B
Sat 05:21:06 AM 39.2524 -81.7717 57° Northeast 515 593 39,000  Level FlightAware ADS-B
Sat 05:21:36 AM 39.2919 -81.6918 57° Northeast 515 593 39,000  Level FlightAware ADS-B
Sat 05:22:16 AM 39.3292 -81.6156 57° Northeast 514 592 39,000  Level Cleveland Center
Sat 05:22:58 AM 39.3875 -81.4981 57° Northeast 515 593 39,000  Level Indianapolis Center
Sat 05:23:58 AM 39.4650 -81.3422 57° Northeast 515 593 39,000  Level Indianapolis Center
Sat 05:24:59 AM 39.5422 -81.1847 58° Northeast 515 593 39,000  Level Indianapolis Center
Sat 05:30:43 AM 39.9897 -80.2616 58° Northeast 513 590 39,000  Level FlightAware ADS-B
Sat 05:31:58 AM 40.0829 -80.0672 58° Northeast 514 592 39,000  Level FlightAware ADS-B
Sat 05:32:58 AM 40.1546 -79.9145 58° Northeast 512 589 39,000  Level FlightAware ADS-B (CYYZ)
Sat 05:33:07 AM 40.1683 -79.8854 59° Northeast 513 590 39,000  Level FlightAware ADS-B
Sat 05:33:43 AM 40.2117 -79.7932 58° Northeast 512 589 39,000  Level FlightAware ADS-B (CYYZ)
Sat 05:34:02 AM 40.2363 -79.7403 59° Northeast 512 589 39,000  Level FlightAware ADS-B (EPLB / LUZ)
Sat 05:34:29 AM 40.2678 -79.6744 58° Northeast 512 589 39,000  Level FlightAware ADS-B (CYYZ)
Sat 05:35:14 AM 40.3236 -79.5554 58° Northeast 511 588 39,000  Level FlightAware ADS-B (CYYZ)
Sat 05:35:59 AM 40.3797 -79.4337 58° Northeast 511 588 39,000  Level FlightAware ADS-B (CYYZ)
Sat 05:36:45 AM 40.4350 -79.3145 58° Northeast 511 588 39,000  Level FlightAware ADS-B (CYYZ)
Sat 05:37:30 AM 40.4897 -79.1951 58° Northeast 511 588 39,000  Level FlightAware ADS-B (CYYZ)
Sat 05:38:15 AM 40.5456 -79.0731 59° Northeast 510 587 39,000  Level FlightAware ADS-B (CYYZ)
Sat 05:39:00 AM 40.6007 -78.9537 59° Northeast 509 586 39,000  Level FlightAware ADS-B (CYYZ)
Sat 05:39:45 AM 40.6553 -78.8339 59° Northeast 510 587 39,000  Level FlightAware ADS-B (CYYZ)
Sat 05:40:31 AM 40.7103 -78.7140 59° Northeast 510 587 39,000  Level FlightAware ADS-B (CYYZ)
Sat 05:41:16 AM 40.7641 -78.5937 59° Northeast 510 587 39,000  Level FlightAware ADS-B (CYYZ)
Sat 05:41:45 AM 40.8007 -78.5135 59° Northeast 510 587 39,000  Level FlightAware ADS-B (CYYZ)
Sat 05:42:16 AM 40.8375 -78.4307 59° Northeast 510 587 39,000  Level FlightAware ADS-B (CYYZ)
Sat 05:43:01 AM 40.8919 -78.3101 59° Northeast 510 587 39,000  Level FlightAware ADS-B (CYYZ)
Sat 05:43:30 AM 40.9271 -78.2324 59° Northeast 510 587 39,000  Level FlightAware ADS-B (CYYZ)
Sat 05:44:01 AM 40.9653 -78.1498 57° Northeast 510 587 39,000  Level FlightAware ADS-B (CYYZ)
Sat 05:44:31 AM 41.0041 -78.0718 55° Northeast 512 589 39,000  Level FlightAware ADS-B (CYYZ)
Sat 05:45:02 AM 41.0453 -77.9943 55° Northeast 512 589 39,000  Level FlightAware ADS-B (CYYZ)
Sat 05:45:47 AM 41.1073 -77.8765 54° Northeast 513 590 39,000  Level FlightAware ADS-B (CYYZ)
Sat 05:46:32 AM 41.1697 -77.7612 54° Northeast 514 592 39,000  Level FlightAware ADS-B (CYYZ)
Sat 05:47:18 AM 41.2330 -77.6456 54° Northeast 515 593 39,000  Level FlightAware ADS-B (CYYZ)
Sat 05:48:03 AM 41.2949 -77.5295 54° Northeast 515 593 39,000  Level FlightAware ADS-B (CYYZ)
Sat 05:48:44 AM 41.3530 -77.4210 54° Northeast 517 595 39,000  Level FlightAware ADS-B
Sat 05:48:48 AM 41.3576 -77.4103 54° Northeast 516 594 39,000  Level FlightAware ADS-B (CYYZ)
Sat 05:49:17 AM 41.3980 -77.3350 54° Northeast 518 596 39,000  Level FlightAware ADS-B
Sat 05:49:33 AM 41.4197 -77.2935 54° Northeast 516 594 39,000  Level FlightAware ADS-B (CYYZ)
Sat 05:49:48 AM 41.4400 -77.2570 54° Northeast 519 597 39,000  Level FlightAware ADS-B
Sat 05:50:18 AM 41.4816 -77.1760 55° Northeast 518 596 39,000  Level FlightAware ADS-B (CYYZ)
Sat 05:50:24 AM 41.4890 -77.1630 55° Northeast 519 597 39,000  Level FlightAware ADS-B
Sat 05:50:59 AM 41.5380 -77.0680 55° Northeast 520 598 39,000  Level FlightAware ADS-B
Sat 05:51:04 AM 41.5438 -77.0580 55° Northeast 519 597 39,000  Level FlightAware ADS-B (CYYZ)
Sat 05:51:36 AM 41.5880 -76.9740 55° Northeast 519 597 39,000 -267 Level FlightAware ADS-B
Sat 05:51:49 AM 41.6060 -76.9373 55° Northeast 515 593 38,800 -621 Descending FlightAware ADS-B (CYYZ)
Sat 05:52:05 AM 41.6280 -76.8950 55° Northeast 514 592 38,700 -667 Descending FlightAware ADS-B
Sat 05:52:34 AM 41.6671 -76.8203 55° Northeast 510 587 38,300 -800 Descending FlightAware ADS-B (CYYZ)
Sat 05:52:35 AM 41.6680 -76.8200 55° Northeast 511 588 38,300 -1,355 Level FlightAware ADS-B
Sat 05:53:05 AM 41.7090 -76.7400 55° Northeast 515 593 37,600 -1,364 Descending FlightAware ADS-B
Sat 05:53:19 AM 41.7277 -76.7030 55° Northeast 516 594 37,300 -11,032 Descending FlightAware ADS-B (CYYZ)
Sat 05:53:36 AM 41.7500 -76.6610 55° Northeast 519 597 31,900 -1,200 Descending FlightAware ADS-B
Sat 05:54:04 AM 41.7887 -76.5843 55° Northeast 519 597 36,400 7,543 Climbing FlightAware ADS-B (CYYZ)
Sat 05:54:11 AM 41.7990 -76.5660 55° Northeast 520 598 36,300 -977 Descending FlightAware ADS-B
Sat 05:54:47 AM 41.8480 -76.4700 55° Northeast 520 598 35,700 -947 Descending FlightAware ADS-B
Sat 05:54:49 AM 41.8502 -76.4649 55° Northeast 519 597 35,700 -800 Level FlightAware ADS-B (CYYZ)
Sat 05:55:17 AM 41.8880 -76.3910 55° Northeast 518 596 35,300 -933 Descending FlightAware ADS-B
Sat 05:55:34 AM 41.9111 -76.3459 55° Northeast 516 594 35,000 -857 Descending FlightAware ADS-B (CYYZ)
Sat 05:55:59 AM 41.9450 -76.2800 55° Northeast 517 595 34,700 -913 Descending FlightAware ADS-B
Sat 05:56:20 AM 41.9714 -76.2295 55° Northeast 515 593 34,300 -973 Descending FlightAware ADS-B (CYYZ)
Sat 05:56:36 AM 41.9910 -76.1900 55° Northeast 516 594 34,100 -933 Descending FlightAware ADS-B
Sat 05:57:05 AM 42.0330 -76.1080 55° Northeast 515 593 33,600 -1,000 Descending FlightAware ADS-B (CYYZ)
Sat 05:57:12 AM 42.0420 -76.0900 55° Northeast 516 594 33,500 -1,000 Descending FlightAware ADS-B
Sat 05:57:41 AM 42.0820 -76.0100 55° Northeast 516 594 33,000 -1,105 Descending FlightAware ADS-B
Sat 05:57:50 AM 42.0889 -75.9968 55° Northeast 516 594 32,800 -1,000 Descending FlightAware ADS-B (CYYZ)
Sat 05:58:17 AM 42.1300 -75.9150 55° Northeast 517 595 32,400 -800 Descending FlightAware ADS-B
Sat 05:58:20 AM 42.1269 -75.9224 55° Northeast 516 594 32,400 -1,200 Level FlightAware ADS-B (CYYZ)
Sat 05:58:47 AM 42.1700 -75.8340 55° Northeast 519 597 31,800 -1,200 Descending FlightAware ADS-B
Sat 05:58:50 AM 42.1723 -75.8318 55° Northeast 517 595 31,800 -2,333 Level FlightAware ADS-B (CYYZ)
Sat 05:59:23 AM 42.2190 -75.7380 55° Northeast 517 595 30,400 -2,800 Descending FlightAware ADS-B
Sat 05:59:35 AM 42.2346 -75.7065 56° Northeast 517 595 29,700 -3,833 Descending FlightAware ADS-B (CYYZ)
Sat 05:59:59 AM 42.2670 -75.6420 56° Northeast 520 598 28,100 -3,871 Descending FlightAware ADS-B
Sat 06:00:06 AM 42.2759 -75.6260 56° Northeast 519 597 27,700 -3,667 Descending FlightAware ADS-B (CYYZ)
Sat 06:00:35 AM 42.3150 -75.5460 56° Northeast 513 590 25,900 -3,254 Descending FlightAware ADS-B
Sat 06:01:05 AM 42.3490 -75.4630 63° Northeast 507 583 24,500 -3,066 Descending FlightAware ADS-B
Sat 06:03:37 AM 42.4368 -75.1467 71° East 425 489 16,600 -2,252 Descending FlightAware ADS-B
Sat 06:07:42 AM 42.5598 -74.5080 90° East 287 330 9,600 -1,548 Descending FlightAware ADS-B
Sat 06:08:51 AM 42.5594 -74.3893 90° East 268 308 8,500 -1,276 Descending FlightAware ADS-B
Sat 06:09:49 AM 42.5588 -74.2934 90° East 273 314 6,900 -1,400 Descending FlightAware ADS-B
Sat 06:10:51 AM 42.5582 -74.1878 90° East 262 302 5,700 -1,140 Descending FlightAware ADS-B
Sat 06:11:50 AM 42.5576 -74.0926 91° East 253 291 4,600 -838 Descending FlightAware ADS-B
Sat 06:13:50 AM 42.5562 -73.9194 91° East 204 235 3,200 -696 Descending FlightAware ADS-B
Sat 06:14:51 AM 42.5555 -73.8458 91° East 186 214 2,500 -446 Descending FlightAware ADS-B
Sat 06:15:51 AM 42.5757 -73.7980 North 149 171 2,300 -186 Descending FlightAware ADS-B
Sat 06:17:00 AM 42.6286 -73.7996 358° North 172 198 2,100 -512 Descending FlightAware ADS-B
Sat 06:18:00 AM 42.6751 -73.8016 359° North 159 183 1,200 -797 Descending FlightAware ADS-B
Sat 06:19:23 AM 42.7205 -73.8035 358° North 121 139 200 -455 Descending FlightAware ADS-B
Sat 06:20:12 AM 42.7481 -73.8044 358° North 123 142 200  Level Boston Center

Login

Don't have an account? Register now (free) for customized features, flight alerts, and more!